sensor_id;sensor_type;location;lat;lon;timestamp;P1;durP1;ratioP1;P2;durP2;ratioP2
44476;SDS011;30180;44.788;10.366;2023-10-13T00:01:48;22.30;;;5.07;;
44476;SDS011;30180;44.788;10.366;2023-10-13T00:04:19;7.80;;;4.28;;
44476;SDS011;30180;44.788;10.366;2023-10-13T00:06:50;7.88;;;4.18;;
44476;SDS011;30180;44.788;10.366;2023-10-13T00:09:19;11.02;;;5.18;;
44476;SDS011;30180;44.788;10.366;2023-10-13T00:11:53;9.93;;;4.55;;
44476;SDS011;30180;44.788;10.366;2023-10-13T00:14:22;8.13;;;4.65;;
44476;SDS011;30180;44.788;10.366;2023-10-13T00:16:59;10.63;;;5.05;;
44476;SDS011;30180;44.788;10.366;2023-10-13T00:19:38;8.52;;;4.80;;
44476;SDS011;30180;44.788;10.366;2023-10-13T00:22:12;12.07;;;4.60;;
44476;SDS011;30180;44.788;10.366;2023-10-13T00:24:43;11.25;;;4.82;;
44476;SDS011;30180;44.788;10.366;2023-10-13T00:27:15;14.90;;;5.07;;
44476;SDS011;30180;44.788;10.366;2023-10-13T00:29:56;8.15;;;4.28;;
44476;SDS011;30180;44.788;10.366;2023-10-13T00:32:49;11.00;;;4.75;;
44476;SDS011;30180;44.788;10.366;2023-10-13T00:35:22;8.23;;;4.38;;
44476;SDS011;30180;44.788;10.366;2023-10-13T00:37:55;8.05;;;4.68;;
44476;SDS011;30180;44.788;10.366;2023-10-13T00:40:24;9.30;;;4.95;;
44476;SDS011;30180;44.788;10.366;2023-10-13T00:43:18;7.28;;;4.55;;
44476;SDS011;30180;44.788;10.366;2023-10-13T00:45:59;7.53;;;4.50;;
44476;SDS011;30180;44.788;10.366;2023-10-13T00:48:35;7.60;;;4.40;;
44476;SDS011;30180;44.788;10.366;2023-10-13T00:51:10;8.23;;;4.88;;
44476;SDS011;30180;44.788;10.366;2023-10-13T00:53:48;12.23;;;4.95;;
44476;SDS011;30180;44.788;10.366;2023-10-13T00:56:17;8.43;;;4.38;;
44476;SDS011;30180;44.788;10.366;2023-10-13T00:58:47;6.57;;;4.65;;
44476;SDS011;30180;44.788;10.366;2023-10-13T01:01:18;11.73;;;4.45;;
44476;SDS011;30180;44.788;10.366;2023-10-13T01:03:49;7.40;;;4.45;;
44476;SDS011;30180;44.788;10.366;2023-10-13T01:06:22;7.47;;;4.60;;
44476;SDS011;30180;44.788;10.366;2023-10-13T01:08:59;10.65;;;4.22;;
44476;SDS011;30180;44.788;10.366;2023-10-13T01:11:37;9.38;;;4.30;;
44476;SDS011;30180;44.788;10.366;2023-10-13T01:14:07;7.18;;;4.50;;
44476;SDS011;30180;44.788;10.366;2023-10-13T01:16:37;9.20;;;4.55;;
44476;SDS011;30180;44.788;10.366;2023-10-13T01:19:10;7.60;;;4.22;;
44476;SDS011;30180;44.788;10.366;2023-10-13T01:21:40;11.13;;;4.43;;
44476;SDS011;30180;44.788;10.366;2023-10-13T01:24:09;7.70;;;4.95;;
44476;SDS011;30180;44.788;10.366;2023-10-13T01:26:45;7.40;;;4.15;;
44476;SDS011;30180;44.788;10.366;2023-10-13T01:29:17;8.07;;;4.60;;
44476;SDS011;30180;44.788;10.366;2023-10-13T01:31:52;8.68;;;4.50;;
44476;SDS011;30180;44.788;10.366;2023-10-13T01:34:20;7.05;;;4.60;;
44476;SDS011;30180;44.788;10.366;2023-10-13T01:36:49;8.45;;;4.25;;
44476;SDS011;30180;44.788;10.366;2023-10-13T01:39:19;7.78;;;4.28;;
44476;SDS011;30180;44.788;10.366;2023-10-13T01:41:53;8.13;;;4.50;;
44476;SDS011;30180;44.788;10.366;2023-10-13T01:44:23;8.48;;;4.47;;
44476;SDS011;30180;44.788;10.366;2023-10-13T01:46:50;7.55;;;4.25;;
44476;SDS011;30180;44.788;10.366;2023-10-13T01:49:19;9.38;;;4.10;;
44476;SDS011;30180;44.788;10.366;2023-10-13T01:51:49;6.90;;;4.53;;
44476;SDS011;30180;44.788;10.366;2023-10-13T01:54:17;12.60;;;4.35;;
44476;SDS011;30180;44.788;10.366;2023-10-13T01:56:48;9.75;;;4.43;;
44476;SDS011;30180;44.788;10.366;2023-10-13T01:59:16;7.43;;;4.43;;
44476;SDS011;30180;44.788;10.366;2023-10-13T02:01:45;7.63;;;4.33;;
44476;SDS011;30180;44.788;10.366;2023-10-13T02:04:14;6.03;;;4.13;;
44476;SDS011;30180;44.788;10.366;2023-10-13T02:06:41;12.30;;;4.38;;
44476;SDS011;30180;44.788;10.366;2023-10-13T02:09:09;9.23;;;4.80;;
44476;SDS011;30180;44.788;10.366;2023-10-13T02:11:41;7.70;;;4.32;;
44476;SDS011;30180;44.788;10.366;2023-10-13T02:14:12;9.15;;;4.53;;
44476;SDS011;30180;44.788;10.366;2023-10-13T02:16:43;11.43;;;4.15;;
44476;SDS011;30180;44.788;10.366;2023-10-13T02:19:16;8.18;;;4.88;;
44476;SDS011;30180;44.788;10.366;2023-10-13T02:21:46;7.50;;;4.40;;
44476;SDS011;30180;44.788;10.366;2023-10-13T02:24:25;9.40;;;4.47;;
44476;SDS011;30180;44.788;10.366;2023-10-13T02:26:58;8.55;;;3.83;;
44476;SDS011;30180;44.788;10.366;2023-10-13T02:29:30;6.97;;;4.03;;
44476;SDS011;30180;44.788;10.366;2023-10-13T02:32:05;6.22;;;4.18;;
44476;SDS011;30180;44.788;10.366;2023-10-13T02:34:39;9.43;;;4.15;;
44476;SDS011;30180;44.788;10.366;2023-10-13T02:39:39;8.18;;;4.22;;
44476;SDS011;30180;44.788;10.366;2023-10-13T02:42:09;7.90;;;4.75;;
44476;SDS011;30180;44.788;10.366;2023-10-13T02:44:49;10.88;;;4.32;;
44476;SDS011;30180;44.788;10.366;2023-10-13T02:47:17;8.40;;;4.32;;
44476;SDS011;30180;44.788;10.366;2023-10-13T02:49:50;10.68;;;4.53;;
44476;SDS011;30180;44.788;10.366;2023-10-13T02:52:17;8.82;;;4.32;;
44476;SDS011;30180;44.788;10.366;2023-10-13T02:54:46;7.10;;;4.10;;
44476;SDS011;30180;44.788;10.366;2023-10-13T02:57:15;7.72;;;4.28;;
44476;SDS011;30180;44.788;10.366;2023-10-13T02:59:44;8.17;;;4.10;;
44476;SDS011;30180;44.788;10.366;2023-10-13T03:02:14;8.97;;;4.50;;
44476;SDS011;30180;44.788;10.366;2023-10-13T03:04:50;7.63;;;4.13;;
44476;SDS011;30180;44.788;10.366;2023-10-13T03:07:25;7.50;;;4.28;;
44476;SDS011;30180;44.788;10.366;2023-10-13T03:09:56;8.25;;;4.20;;
44476;SDS011;30180;44.788;10.366;2023-10-13T03:12:28;8.63;;;4.65;;
44476;SDS011;30180;44.788;10.366;2023-10-13T03:15:00;6.90;;;4.25;;
44476;SDS011;30180;44.788;10.366;2023-10-13T03:17:39;8.38;;;4.35;;
44476;SDS011;30180;44.788;10.366;2023-10-13T03:20:10;6.88;;;3.88;;
44476;SDS011;30180;44.788;10.366;2023-10-13T03:22:40;6.22;;;4.00;;
44476;SDS011;30180;44.788;10.366;2023-10-13T03:25:11;6.65;;;4.03;;
44476;SDS011;30180;44.788;10.366;2023-10-13T03:27:51;13.52;;;4.30;;
44476;SDS011;30180;44.788;10.366;2023-10-13T03:30:28;11.65;;;4.45;;
44476;SDS011;30180;44.788;10.366;2023-10-13T03:33:05;11.02;;;4.50;;
44476;SDS011;30180;44.788;10.366;2023-10-13T03:35:34;9.95;;;4.50;;
44476;SDS011;30180;44.788;10.366;2023-10-13T03:38:07;8.25;;;4.13;;
44476;SDS011;30180;44.788;10.366;2023-10-13T03:40:44;9.35;;;4.22;;
44476;SDS011;30180;44.788;10.366;2023-10-13T03:43:35;9.18;;;3.95;;
44476;SDS011;30180;44.788;10.366;2023-10-13T03:46:12;5.40;;;3.75;;
44476;SDS011;30180;44.788;10.366;2023-10-13T03:48:41;8.90;;;4.35;;
44476;SDS011;30180;44.788;10.366;2023-10-13T03:51:20;8.13;;;3.88;;
44476;SDS011;30180;44.788;10.366;2023-10-13T03:53:57;8.75;;;4.22;;
44476;SDS011;30180;44.788;10.366;2023-10-13T03:56:25;8.40;;;4.50;;
44476;SDS011;30180;44.788;10.366;2023-10-13T03:59:08;8.10;;;4.50;;
44476;SDS011;30180;44.788;10.366;2023-10-13T04:01:45;9.00;;;4.38;;
44476;SDS011;30180;44.788;10.366;2023-10-13T04:04:25;7.60;;;4.30;;
44476;SDS011;30180;44.788;10.366;2023-10-13T04:07:14;8.88;;;4.35;;
44476;SDS011;30180;44.788;10.366;2023-10-13T04:10:01;9.50;;;4.65;;
44476;SDS011;30180;44.788;10.366;2023-10-13T04:12:49;8.95;;;4.35;;
44476;SDS011;30180;44.788;10.366;2023-10-13T04:15:36;12.77;;;3.90;;
44476;SDS011;30180;44.788;10.366;2023-10-13T04:18:10;11.25;;;4.57;;
44476;SDS011;30180;44.788;10.366;2023-10-13T04:21:00;9.25;;;3.92;;
44476;SDS011;30180;44.788;10.366;2023-10-13T04:23:45;12.20;;;4.45;;
44476;SDS011;30180;44.788;10.366;2023-10-13T04:26:27;10.27;;;4.57;;
44476;SDS011;30180;44.788;10.366;2023-10-13T04:29:04;11.05;;;4.30;;
44476;SDS011;30180;44.788;10.366;2023-10-13T04:31:38;12.90;;;4.95;;
44476;SDS011;30180;44.788;10.366;2023-10-13T04:34:23;10.07;;;4.78;;
44476;SDS011;30180;44.788;10.366;2023-10-13T04:37:00;9.82;;;4.55;;
44476;SDS011;30180;44.788;10.366;2023-10-13T04:39:49;7.88;;;4.65;;
44476;SDS011;30180;44.788;10.366;2023-10-13T04:42:24;9.93;;;4.50;;
44476;SDS011;30180;44.788;10.366;2023-10-13T04:45:16;10.48;;;4.50;;
44476;SDS011;30180;44.788;10.366;2023-10-13T04:48:12;9.13;;;4.40;;
44476;SDS011;30180;44.788;10.366;2023-10-13T04:50:44;14.18;;;4.45;;
44476;SDS011;30180;44.788;10.366;2023-10-13T04:53:13;9.02;;;4.13;;
44476;SDS011;30180;44.788;10.366;2023-10-13T04:55:59;7.35;;;4.30;;
44476;SDS011;30180;44.788;10.366;2023-10-13T04:58:51;10.52;;;5.05;;
44476;SDS011;30180;44.788;10.366;2023-10-13T05:01:33;7.95;;;4.13;;
44476;SDS011;30180;44.788;10.366;2023-10-13T05:04:23;12.70;;;4.75;;
44476;SDS011;30180;44.788;10.366;2023-10-13T05:07:05;10.93;;;4.15;;
44476;SDS011;30180;44.788;10.366;2023-10-13T05:09:51;10.15;;;4.30;;
44476;SDS011;30180;44.788;10.366;2023-10-13T05:12:37;8.18;;;3.97;;
44476;SDS011;30180;44.788;10.366;2023-10-13T05:15:22;7.78;;;4.25;;
44476;SDS011;30180;44.788;10.366;2023-10-13T05:18:08;11.18;;;3.80;;
44476;SDS011;30180;44.788;10.366;2023-10-13T05:20:56;12.80;;;4.15;;
44476;SDS011;30180;44.788;10.366;2023-10-13T05:23:42;9.05;;;4.85;;
44476;SDS011;30180;44.788;10.366;2023-10-13T05:26:27;14.45;;;4.40;;
44476;SDS011;30180;44.788;10.366;2023-10-13T05:29:13;10.50;;;4.20;;
44476;SDS011;30180;44.788;10.366;2023-10-13T05:31:59;11.07;;;5.25;;
44476;SDS011;30180;44.788;10.366;2023-10-13T05:34:45;15.00;;;4.82;;
44476;SDS011;30180;44.788;10.366;2023-10-13T05:37:32;11.30;;;4.93;;
44476;SDS011;30180;44.788;10.366;2023-10-13T05:40:18;13.70;;;5.63;;
44476;SDS011;30180;44.788;10.366;2023-10-13T05:43:04;12.25;;;6.40;;
44476;SDS011;30180;44.788;10.366;2023-10-13T05:46:01;13.35;;;6.47;;
44476;SDS011;30180;44.788;10.366;2023-10-13T05:48:44;13.15;;;7.35;;
44476;SDS011;30180;44.788;10.366;2023-10-13T05:51:47;12.82;;;7.10;;
44476;SDS011;30180;44.788;10.366;2023-10-13T05:54:24;16.58;;;7.53;;
44476;SDS011;30180;44.788;10.366;2023-10-13T05:57:10;14.40;;;6.82;;
44476;SDS011;30180;44.788;10.366;2023-10-13T06:00:01;11.70;;;7.20;;
44476;SDS011;30180;44.788;10.366;2023-10-13T06:02:47;13.45;;;6.72;;
44476;SDS011;30180;44.788;10.366;2023-10-13T06:05:32;9.88;;;6.50;;
44476;SDS011;30180;44.788;10.366;2023-10-13T06:08:19;11.85;;;7.43;;
44476;SDS011;30180;44.788;10.366;2023-10-13T06:11:04;10.38;;;6.43;;
44476;SDS011;30180;44.788;10.366;2023-10-13T06:13:50;11.60;;;7.03;;
44476;SDS011;30180;44.788;10.366;2023-10-13T06:16:35;12.18;;;7.43;;
44476;SDS011;30180;44.788;10.366;2023-10-13T06:19:21;10.82;;;6.47;;
44476;SDS011;30180;44.788;10.366;2023-10-13T06:22:07;11.55;;;7.00;;
44476;SDS011;30180;44.788;10.366;2023-10-13T06:24:54;13.90;;;6.78;;
44476;SDS011;30180;44.788;10.366;2023-10-13T06:27:40;10.70;;;6.95;;
44476;SDS011;30180;44.788;10.366;2023-10-13T06:30:25;11.77;;;6.53;;
44476;SDS011;30180;44.788;10.366;2023-10-13T06:32:53;13.02;;;7.00;;
44476;SDS011;30180;44.788;10.366;2023-10-13T06:35:22;11.75;;;6.65;;
44476;SDS011;30180;44.788;10.366;2023-10-13T06:37:50;12.55;;;7.25;;
44476;SDS011;30180;44.788;10.366;2023-10-13T06:40:20;16.73;;;6.70;;
44476;SDS011;30180;44.788;10.366;2023-10-13T06:43:00;12.23;;;6.40;;
44476;SDS011;30180;44.788;10.366;2023-10-13T06:45:43;11.85;;;6.70;;
44476;SDS011;30180;44.788;10.366;2023-10-13T06:48:17;10.45;;;6.75;;
44476;SDS011;30180;44.788;10.366;2023-10-13T06:50:49;17.08;;;6.38;;
44476;SDS011;30180;44.788;10.366;2023-10-13T06:53:18;12.00;;;6.20;;
44476;SDS011;30180;44.788;10.366;2023-10-13T06:55:48;13.35;;;6.63;;
44476;SDS011;30180;44.788;10.366;2023-10-13T06:58:19;16.75;;;6.82;;
44476;SDS011;30180;44.788;10.366;2023-10-13T07:00:51;14.55;;;6.07;;
44476;SDS011;30180;44.788;10.366;2023-10-13T07:03:24;12.00;;;6.88;;
44476;SDS011;30180;44.788;10.366;2023-10-13T07:05:53;11.07;;;6.50;;
44476;SDS011;30180;44.788;10.366;2023-10-13T07:08:25;21.40;;;6.63;;
44476;SDS011;30180;44.788;10.366;2023-10-13T07:10:59;11.25;;;6.20;;
44476;SDS011;30180;44.788;10.366;2023-10-13T07:13:32;12.32;;;6.07;;
44476;SDS011;30180;44.788;10.366;2023-10-13T07:16:04;12.05;;;6.38;;
44476;SDS011;30180;44.788;10.366;2023-10-13T07:18:37;13.27;;;6.60;;
44476;SDS011;30180;44.788;10.366;2023-10-13T07:21:15;10.43;;;5.90;;
44476;SDS011;30180;44.788;10.366;2023-10-13T07:23:50;14.05;;;6.95;;
44476;SDS011;30180;44.788;10.366;2023-10-13T07:26:37;12.18;;;6.07;;
44476;SDS011;30180;44.788;10.366;2023-10-13T07:29:10;13.00;;;6.35;;
44476;SDS011;30180;44.788;10.366;2023-10-13T07:31:38;15.68;;;6.57;;
44476;SDS011;30180;44.788;10.366;2023-10-13T07:34:08;12.27;;;6.30;;
44476;SDS011;30180;44.788;10.366;2023-10-13T07:36:52;14.43;;;5.78;;
44476;SDS011;30180;44.788;10.366;2023-10-13T07:39:25;12.48;;;6.60;;
44476;SDS011;30180;44.788;10.366;2023-10-13T07:42:02;12.98;;;6.50;;
44476;SDS011;30180;44.788;10.366;2023-10-13T07:44:32;9.98;;;6.00;;
44476;SDS011;30180;44.788;10.366;2023-10-13T07:47:06;11.07;;;5.63;;
44476;SDS011;30180;44.788;10.366;2023-10-13T07:49:37;9.57;;;5.78;;
44476;SDS011;30180;44.788;10.366;2023-10-13T07:52:07;12.40;;;6.32;;
44476;SDS011;30180;44.788;10.366;2023-10-13T07:54:56;14.60;;;6.10;;
44476;SDS011;30180;44.788;10.366;2023-10-13T07:57:40;14.40;;;5.90;;
44476;SDS011;30180;44.788;10.366;2023-10-13T08:00:21;13.07;;;5.80;;
44476;SDS011;30180;44.788;10.366;2023-10-13T08:02:56;10.02;;;6.00;;
44476;SDS011;30180;44.788;10.366;2023-10-13T08:05:36;11.95;;;5.68;;
44476;SDS011;30180;44.788;10.366;2023-10-13T08:08:22;10.25;;;6.00;;
44476;SDS011;30180;44.788;10.366;2023-10-13T08:10:52;12.70;;;6.57;;
44476;SDS011;30180;44.788;10.366;2023-10-13T08:13:24;8.25;;;5.30;;
44476;SDS011;30180;44.788;10.366;2023-10-13T08:15:53;12.15;;;5.88;;
44476;SDS011;30180;44.788;10.366;2023-10-13T08:18:21;13.65;;;5.18;;
44476;SDS011;30180;44.788;10.366;2023-10-13T08:20:57;8.70;;;5.22;;
44476;SDS011;30180;44.788;10.366;2023-10-13T08:23:30;9.38;;;5.43;;
44476;SDS011;30180;44.788;10.366;2023-10-13T08:26:25;10.55;;;5.57;;
44476;SDS011;30180;44.788;10.366;2023-10-13T08:29:20;9.85;;;5.45;;
44476;SDS011;30180;44.788;10.366;2023-10-13T08:32:05;10.68;;;6.05;;
44476;SDS011;30180;44.788;10.366;2023-10-13T08:35:01;10.55;;;5.45;;
44476;SDS011;30180;44.788;10.366;2023-10-13T08:37:49;9.30;;;6.00;;
44476;SDS011;30180;44.788;10.366;2023-10-13T08:40:57;8.73;;;5.22;;
44476;SDS011;30180;44.788;10.366;2023-10-13T08:43:44;8.60;;;5.35;;
44476;SDS011;30180;44.788;10.366;2023-10-13T08:46:19;9.90;;;5.32;;
44476;SDS011;30180;44.788;10.366;2023-10-13T08:48:56;7.82;;;5.32;;
44476;SDS011;30180;44.788;10.366;2023-10-13T08:51:44;6.68;;;4.65;;
44476;SDS011;30180;44.788;10.366;2023-10-13T08:54:16;8.25;;;5.15;;
44476;SDS011;30180;44.788;10.366;2023-10-13T08:57:01;7.68;;;4.75;;
44476;SDS011;30180;44.788;10.366;2023-10-13T09:00:00;9.85;;;4.80;;
44476;SDS011;30180;44.788;10.366;2023-10-13T09:02:43;6.55;;;4.95;;
44476;SDS011;30180;44.788;10.366;2023-10-13T09:05:25;9.63;;;5.20;;
44476;SDS011;30180;44.788;10.366;2023-10-13T09:08:08;8.00;;;5.00;;
44476;SDS011;30180;44.788;10.366;2023-10-13T09:10:43;6.40;;;4.68;;
44476;SDS011;30180;44.788;10.366;2023-10-13T09:13:34;9.30;;;5.00;;
44476;SDS011;30180;44.788;10.366;2023-10-13T09:16:11;8.50;;;4.90;;
44476;SDS011;30180;44.788;10.366;2023-10-13T09:18:50;7.45;;;5.07;;
44476;SDS011;30180;44.788;10.366;2023-10-13T09:21:19;8.60;;;4.90;;
44476;SDS011;30180;44.788;10.366;2023-10-13T09:24:13;8.25;;;4.80;;
44476;SDS011;30180;44.788;10.366;2023-10-13T09:26:49;8.07;;;5.05;;
44476;SDS011;30180;44.788;10.366;2023-10-13T09:29:22;9.80;;;5.22;;
44476;SDS011;30180;44.788;10.366;2023-10-13T09:31:58;7.03;;;4.47;;
44476;SDS011;30180;44.788;10.366;2023-10-13T09:34:31;8.55;;;5.20;;
44476;SDS011;30180;44.788;10.366;2023-10-13T09:37:07;10.48;;;5.22;;
44476;SDS011;30180;44.788;10.366;2023-10-13T09:39:37;7.57;;;5.13;;
44476;SDS011;30180;44.788;10.366;2023-10-13T09:42:15;7.95;;;5.60;;
44476;SDS011;30180;44.788;10.366;2023-10-13T09:44:45;10.23;;;6.03;;
44476;SDS011;30180;44.788;10.366;2023-10-13T09:47:22;6.53;;;4.70;;
44476;SDS011;30180;44.788;10.366;2023-10-13T09:50:00;8.38;;;5.35;;
44476;SDS011;30180;44.788;10.366;2023-10-13T09:52:40;10.98;;;5.07;;
44476;SDS011;30180;44.788;10.366;2023-10-13T09:55:17;9.25;;;5.15;;
44476;SDS011;30180;44.788;10.366;2023-10-13T09:57:54;8.23;;;5.15;;
44476;SDS011;30180;44.788;10.366;2023-10-13T10:00:36;7.47;;;5.35;;
44476;SDS011;30180;44.788;10.366;2023-10-13T10:03:22;8.38;;;5.13;;
44476;SDS011;30180;44.788;10.366;2023-10-13T10:06:07;9.32;;;5.47;;
44476;SDS011;30180;44.788;10.366;2023-10-13T10:08:43;9.43;;;5.47;;
44476;SDS011;30180;44.788;10.366;2023-10-13T10:14:28;9.18;;;5.25;;
44476;SDS011;30180;44.788;10.366;2023-10-13T10:17:11;7.78;;;4.88;;
44476;SDS011;30180;44.788;10.366;2023-10-13T10:19:50;7.55;;;4.90;;
44476;SDS011;30180;44.788;10.366;2023-10-13T10:22:26;9.75;;;5.30;;
44476;SDS011;30180;44.788;10.366;2023-10-13T10:25:00;9.30;;;5.53;;
44476;SDS011;30180;44.788;10.366;2023-10-13T10:27:30;6.93;;;4.78;;
44476;SDS011;30180;44.788;10.366;2023-10-13T10:29:59;7.47;;;5.57;;
44476;SDS011;30180;44.788;10.366;2023-10-13T10:32:34;9.48;;;4.97;;
44476;SDS011;30180;44.788;10.366;2023-10-13T10:35:05;7.65;;;5.05;;
44476;SDS011;30180;44.788;10.366;2023-10-13T10:37:37;9.95;;;5.65;;
44476;SDS011;30180;44.788;10.366;2023-10-13T10:40:13;7.22;;;5.00;;
44476;SDS011;30180;44.788;10.366;2023-10-13T10:42:59;7.35;;;5.22;;
44476;SDS011;30180;44.788;10.366;2023-10-13T10:45:47;6.35;;;4.72;;
44476;SDS011;30180;44.788;10.366;2023-10-13T10:48:17;7.15;;;5.45;;
44476;SDS011;30180;44.788;10.366;2023-10-13T10:50:54;7.82;;;5.03;;
44476;SDS011;30180;44.788;10.366;2023-10-13T10:53:24;9.98;;;5.50;;
44476;SDS011;30180;44.788;10.366;2023-10-13T10:56:05;11.63;;;5.82;;
44476;SDS011;30180;44.788;10.366;2023-10-13T10:58:46;11.73;;;5.95;;
44476;SDS011;30180;44.788;10.366;2023-10-13T11:01:15;10.63;;;5.80;;
44476;SDS011;30180;44.788;10.366;2023-10-13T11:03:54;11.55;;;5.60;;
44476;SDS011;30180;44.788;10.366;2023-10-13T11:06:34;10.80;;;5.53;;
44476;SDS011;30180;44.788;10.366;2023-10-13T11:09:10;11.95;;;6.18;;
44476;SDS011;30180;44.788;10.366;2023-10-13T11:11:47;12.52;;;6.25;;
44476;SDS011;30180;44.788;10.366;2023-10-13T11:14:22;11.48;;;6.32;;
44476;SDS011;30180;44.788;10.366;2023-10-13T11:16:51;10.18;;;6.70;;
44476;SDS011;30180;44.788;10.366;2023-10-13T11:19:21;9.32;;;5.78;;
44476;SDS011;30180;44.788;10.366;2023-10-13T11:22:09;12.25;;;6.68;;
44476;SDS011;30180;44.788;10.366;2023-10-13T11:24:43;10.30;;;6.32;;
44476;SDS011;30180;44.788;10.366;2023-10-13T11:27:14;9.15;;;5.97;;
44476;SDS011;30180;44.788;10.366;2023-10-13T11:29:47;11.25;;;5.95;;
44476;SDS011;30180;44.788;10.366;2023-10-13T11:32:19;11.90;;;6.30;;
44476;SDS011;30180;44.788;10.366;2023-10-13T11:34:48;12.02;;;6.70;;
44476;SDS011;30180;44.788;10.366;2023-10-13T11:37:21;10.88;;;6.22;;
44476;SDS011;30180;44.788;10.366;2023-10-13T11:40:06;9.20;;;5.90;;
44476;SDS011;30180;44.788;10.366;2023-10-13T11:42:42;9.73;;;5.80;;
44476;SDS011;30180;44.788;10.366;2023-10-13T11:45:13;9.77;;;5.32;;
44476;SDS011;30180;44.788;10.366;2023-10-13T11:47:55;9.88;;;5.28;;
44476;SDS011;30180;44.788;10.366;2023-10-13T11:53:00;9.27;;;5.85;;
44476;SDS011;30180;44.788;10.366;2023-10-13T11:55:35;9.93;;;6.22;;
44476;SDS011;30180;44.788;10.366;2023-10-13T11:58:03;10.27;;;5.65;;
44476;SDS011;30180;44.788;10.366;2023-10-13T12:00:32;10.98;;;5.82;;
44476;SDS011;30180;44.788;10.366;2023-10-13T12:03:15;9.20;;;4.88;;
44476;SDS011;30180;44.788;10.366;2023-10-13T12:06:01;12.45;;;6.13;;
44476;SDS011;30180;44.788;10.366;2023-10-13T12:08:46;8.60;;;6.18;;
44476;SDS011;30180;44.788;10.366;2023-10-13T12:11:20;10.10;;;5.85;;
44476;SDS011;30180;44.788;10.366;2023-10-13T12:13:57;11.60;;;6.00;;
44476;SDS011;30180;44.788;10.366;2023-10-13T12:16:37;9.80;;;5.40;;
44476;SDS011;30180;44.788;10.366;2023-10-13T12:19:06;9.90;;;6.00;;
44476;SDS011;30180;44.788;10.366;2023-10-13T12:21:37;11.02;;;6.32;;
44476;SDS011;30180;44.788;10.366;2023-10-13T12:24:07;11.40;;;5.45;;
44476;SDS011;30180;44.788;10.366;2023-10-13T12:26:50;10.23;;;5.47;;
44476;SDS011;30180;44.788;10.366;2023-10-13T12:29:23;9.43;;;5.60;;
44476;SDS011;30180;44.788;10.366;2023-10-13T12:31:55;7.80;;;5.03;;
44476;SDS011;30180;44.788;10.366;2023-10-13T12:34:35;10.38;;;6.00;;
44476;SDS011;30180;44.788;10.366;2023-10-13T12:37:43;8.98;;;5.40;;
44476;SDS011;30180;44.788;10.366;2023-10-13T12:40:18;9.45;;;6.07;;
44476;SDS011;30180;44.788;10.366;2023-10-13T12:43:05;9.93;;;6.10;;
44476;SDS011;30180;44.788;10.366;2023-10-13T12:45:51;9.75;;;5.72;;
44476;SDS011;30180;44.788;10.366;2023-10-13T12:48:37;9.13;;;5.70;;
44476;SDS011;30180;44.788;10.366;2023-10-13T12:51:31;8.32;;;4.80;;
44476;SDS011;30180;44.788;10.366;2023-10-13T12:54:17;8.90;;;5.30;;
44476;SDS011;30180;44.788;10.366;2023-10-13T12:56:50;7.95;;;5.38;;
44476;SDS011;30180;44.788;10.366;2023-10-13T12:59:24;11.82;;;6.07;;
44476;SDS011;30180;44.788;10.366;2023-10-13T13:01:54;8.25;;;5.50;;
44476;SDS011;30180;44.788;10.366;2023-10-13T13:04:22;8.75;;;5.72;;
44476;SDS011;30180;44.788;10.366;2023-10-13T13:06:54;9.77;;;6.13;;
44476;SDS011;30180;44.788;10.366;2023-10-13T13:09:22;10.38;;;5.75;;
44476;SDS011;30180;44.788;10.366;2023-10-13T13:11:53;7.55;;;5.05;;
44476;SDS011;30180;44.788;10.366;2023-10-13T13:14:26;8.25;;;5.70;;
44476;SDS011;30180;44.788;10.366;2023-10-13T13:16:55;8.55;;;5.20;;
44476;SDS011;30180;44.788;10.366;2023-10-13T13:19:32;10.77;;;5.53;;
44476;SDS011;30180;44.788;10.366;2023-10-13T13:22:03;8.80;;;5.35;;
44476;SDS011;30180;44.788;10.366;2023-10-13T13:24:31;10.60;;;5.80;;
44476;SDS011;30180;44.788;10.366;2023-10-13T13:27:00;8.98;;;5.97;;
44476;SDS011;30180;44.788;10.366;2023-10-13T13:29:33;8.20;;;5.95;;
44476;SDS011;30180;44.788;10.366;2023-10-13T13:32:04;7.15;;;5.47;;
44476;SDS011;30180;44.788;10.366;2023-10-13T13:34:43;11.02;;;5.85;;
44476;SDS011;30180;44.788;10.366;2023-10-13T13:37:21;9.52;;;5.45;;
44476;SDS011;30180;44.788;10.366;2023-10-13T13:39:53;11.18;;;5.72;;
44476;SDS011;30180;44.788;10.366;2023-10-13T13:42:22;8.98;;;5.03;;
44476;SDS011;30180;44.788;10.366;2023-10-13T13:44:52;9.50;;;5.82;;
44476;SDS011;30180;44.788;10.366;2023-10-13T13:47:20;8.57;;;5.40;;
44476;SDS011;30180;44.788;10.366;2023-10-13T13:49:49;8.98;;;5.60;;
44476;SDS011;30180;44.788;10.366;2023-10-13T13:52:19;9.13;;;6.27;;
44476;SDS011;30180;44.788;10.366;2023-10-13T13:57:29;9.68;;;6.07;;
44476;SDS011;30180;44.788;10.366;2023-10-13T13:59:59;8.13;;;5.63;;
44476;SDS011;30180;44.788;10.366;2023-10-13T14:02:28;9.20;;;6.10;;
44476;SDS011;30180;44.788;10.366;2023-10-13T14:04:56;9.95;;;5.78;;
44476;SDS011;30180;44.788;10.366;2023-10-13T14:07:28;10.45;;;6.22;;
44476;SDS011;30180;44.788;10.366;2023-10-13T14:09:59;9.88;;;6.00;;
44476;SDS011;30180;44.788;10.366;2023-10-13T14:12:33;9.80;;;6.03;;
44476;SDS011;30180;44.788;10.366;2023-10-13T14:15:10;10.13;;;5.78;;
44476;SDS011;30180;44.788;10.366;2023-10-13T14:17:50;9.00;;;6.10;;
44476;SDS011;30180;44.788;10.366;2023-10-13T14:20:19;9.90;;;6.07;;
44476;SDS011;30180;44.788;10.366;2023-10-13T14:22:47;9.75;;;5.53;;
44476;SDS011;30180;44.788;10.366;2023-10-13T14:25:16;13.18;;;6.32;;
44476;SDS011;30180;44.788;10.366;2023-10-13T14:27:44;12.40;;;6.00;;
44476;SDS011;30180;44.788;10.366;2023-10-13T14:30:15;9.23;;;5.70;;
44476;SDS011;30180;44.788;10.366;2023-10-13T14:32:46;7.38;;;5.60;;
44476;SDS011;30180;44.788;10.366;2023-10-13T14:35:15;8.07;;;5.75;;
44476;SDS011;30180;44.788;10.366;2023-10-13T14:37:43;9.10;;;6.03;;
44476;SDS011;30180;44.788;10.366;2023-10-13T14:40:12;9.27;;;5.82;;
44476;SDS011;30180;44.788;10.366;2023-10-13T14:42:42;7.90;;;5.28;;
44476;SDS011;30180;44.788;10.366;2023-10-13T14:45:12;8.80;;;5.80;;
44476;SDS011;30180;44.788;10.366;2023-10-13T14:47:44;9.93;;;5.63;;
44476;SDS011;30180;44.788;10.366;2023-10-13T14:50:12;11.23;;;6.05;;
44476;SDS011;30180;44.788;10.366;2023-10-13T14:52:47;10.88;;;6.20;;
44476;SDS011;30180;44.788;10.366;2023-10-13T14:55:17;11.18;;;6.65;;
44476;SDS011;30180;44.788;10.366;2023-10-13T14:57:59;11.90;;;5.93;;
44476;SDS011;30180;44.788;10.366;2023-10-13T15:00:32;9.02;;;5.45;;
44476;SDS011;30180;44.788;10.366;2023-10-13T15:03:03;8.70;;;5.18;;
44476;SDS011;30180;44.788;10.366;2023-10-13T15:05:37;9.37;;;5.93;;
44476;SDS011;30180;44.788;10.366;2023-10-13T15:08:06;10.80;;;5.93;;
44476;SDS011;30180;44.788;10.366;2023-10-13T15:10:34;12.68;;;5.88;;
44476;SDS011;30180;44.788;10.366;2023-10-13T15:13:03;11.45;;;6.00;;
44476;SDS011;30180;44.788;10.366;2023-10-13T15:15:33;9.98;;;5.28;;
44476;SDS011;30180;44.788;10.366;2023-10-13T15:18:02;9.60;;;6.13;;
44476;SDS011;30180;44.788;10.366;2023-10-13T15:20:31;12.82;;;6.10;;
44476;SDS011;30180;44.788;10.366;2023-10-13T15:22:59;10.20;;;5.57;;
44476;SDS011;30180;44.788;10.366;2023-10-13T15:25:28;11.57;;;6.00;;
44476;SDS011;30180;44.788;10.366;2023-10-13T15:28:05;10.73;;;5.90;;
44476;SDS011;30180;44.788;10.366;2023-10-13T15:30:37;10.65;;;6.10;;
44476;SDS011;30180;44.788;10.366;2023-10-13T15:33:19;8.73;;;5.90;;